createdAt,value
2019-01-28T00:04:35.849Z,2.10
2019-01-28T00:09:23.082Z,2.10
2019-01-28T00:14:09.490Z,2.20
2019-01-28T00:18:55.744Z,2.10
2019-01-28T00:23:42.423Z,2.10
2019-01-28T00:28:28.187Z,2.20
2019-01-28T00:33:16.056Z,2.20
2019-01-28T00:38:02.798Z,2.30
2019-01-28T00:42:49.554Z,2.10
2019-01-28T00:47:35.263Z,2.00
2019-01-28T00:52:21.140Z,1.70
2019-01-28T00:57:07.948Z,1.50
2019-01-28T01:01:54.045Z,1.60
2019-01-28T01:06:40.941Z,1.60
2019-01-28T01:11:27.702Z,2.00
2019-01-28T01:16:16.481Z,2.20
2019-01-28T01:21:02.336Z,2.30
2019-01-28T01:25:48.675Z,2.20
2019-01-28T01:30:34.395Z,2.10
2019-01-28T01:35:20.947Z,2.20
2019-01-28T01:40:08.541Z,2.30
2019-01-28T01:44:55.355Z,2.60
2019-01-28T01:49:41.031Z,2.60
2019-01-28T01:54:26.799Z,2.50
2019-01-28T01:59:12.570Z,2.60
2019-01-28T02:03:58.294Z,2.60
2019-01-28T02:08:46.818Z,3.00
2019-01-28T02:13:32.516Z,2.90
2019-01-28T02:18:18.596Z,2.70
2019-01-28T02:23:04.482Z,2.60
2019-01-28T02:27:50.356Z,2.60
2019-01-28T02:32:36.710Z,2.60
2019-01-28T02:37:23.489Z,2.70
2019-01-28T02:42:09.222Z,2.60
2019-01-28T02:46:54.944Z,2.40
2019-01-28T02:51:40.685Z,2.20
2019-01-28T02:56:27.518Z,2.30
2019-01-28T03:01:13.303Z,2.20
2019-01-28T03:05:59.643Z,2.10
2019-01-28T03:10:47.415Z,2.10
2019-01-28T03:15:33.718Z,2.10
2019-01-28T03:20:20.310Z,2.00
2019-01-28T03:25:07.456Z,2.00
2019-01-28T03:30:14.873Z,1.90
2019-01-28T03:35:01.119Z,2.00
2019-01-28T03:39:47.173Z,2.10
2019-01-28T03:44:33.519Z,2.30
2019-01-28T03:49:19.339Z,2.40
2019-01-28T03:54:05.264Z,2.40
2019-01-28T03:58:51.650Z,2.20
2019-01-28T04:03:38.872Z,2.00
2019-01-28T04:08:25.128Z,1.90
2019-01-28T04:13:12.555Z,1.80
2019-01-28T04:17:58.445Z,1.80
2019-01-28T04:22:44.772Z,1.80
2019-01-28T04:27:30.584Z,1.90
2019-01-28T04:32:16.461Z,1.90
2019-01-28T04:37:02.303Z,1.80
2019-01-28T04:41:48.056Z,1.80
2019-01-28T04:46:33.856Z,1.90
2019-01-28T04:51:22.066Z,1.80
2019-01-28T04:56:11.123Z,2.00
2019-01-28T05:00:57.560Z,2.50
2019-01-28T05:05:43.344Z,2.50
2019-01-28T05:10:29.533Z,2.40
2019-01-28T05:15:16.415Z,2.30
2019-01-28T05:20:02.142Z,2.30
2019-01-28T05:24:48.088Z,2.30
2019-01-28T05:29:34.858Z,2.20
2019-01-28T05:34:21.391Z,2.20
2019-01-28T05:39:10.920Z,2.10
2019-01-28T05:43:57.105Z,2.20
2019-01-28T05:48:43.765Z,2.20
2019-01-28T05:53:29.539Z,2.20
2019-01-28T05:58:17.058Z,2.20
2019-01-28T06:03:03.381Z,2.30
2019-01-28T06:07:50.869Z,2.30
2019-01-28T06:12:38.512Z,2.20
2019-01-28T06:17:26.254Z,2.10
2019-01-28T06:22:13.103Z,2.00
2019-01-28T06:26:59.265Z,1.90
2019-01-28T06:31:50.163Z,1.90
2019-01-28T06:36:35.552Z,2.10
2019-01-28T06:41:21.326Z,2.80
2019-01-28T06:46:07.275Z,2.30
2019-01-28T06:50:54.168Z,2.20
2019-01-28T06:55:39.967Z,2.20
2019-01-28T07:00:32.202Z,3.20
2019-01-28T07:05:21.304Z,3.10
2019-01-28T07:10:08.405Z,2.50
2019-01-28T07:14:55.524Z,2.40
2019-01-28T07:19:41.339Z,2.40
2019-01-28T07:24:27.066Z,2.40
2019-01-28T07:29:12.827Z,2.50
2019-01-28T07:34:01.624Z,2.50
2019-01-28T07:38:47.411Z,2.40
2019-01-28T07:43:33.190Z,2.30
2019-01-28T07:48:19.795Z,2.30
2019-01-28T07:53:06.577Z,2.20
2019-01-28T07:57:52.870Z,2.40
2019-01-28T08:02:38.954Z,2.50
2019-01-28T08:07:25.275Z,2.50
2019-01-28T08:12:11.925Z,2.60
2019-01-28T08:16:58.279Z,2.60
2019-01-28T08:21:44.177Z,2.60
2019-01-28T08:26:29.966Z,2.60
2019-01-28T08:31:17.178Z,2.90
2019-01-28T08:36:03.160Z,3.00
2019-01-28T08:40:50.646Z,3.00
2019-01-28T08:45:36.948Z,3.00
2019-01-28T08:50:25.179Z,2.90
2019-01-28T08:55:14.568Z,2.70
2019-01-28T09:00:00.601Z,2.70
2019-01-28T09:04:46.476Z,2.60
2019-01-28T09:09:32.880Z,2.70
2019-01-28T09:14:20.613Z,2.80
2019-01-28T09:19:06.595Z,2.90
2019-01-28T09:23:53.672Z,3.10
2019-01-28T09:28:40.060Z,2.90
2019-01-28T09:33:25.779Z,3.10
2019-01-28T09:38:11.718Z,3.20
2019-01-28T09:42:59.892Z,3.40
2019-01-28T09:47:45.912Z,3.30
2019-01-28T09:52:31.664Z,3.40
2019-01-28T09:57:17.726Z,3.20
2019-01-28T10:02:03.731Z,3.20
2019-01-28T10:06:49.474Z,3.40
2019-01-28T10:11:35.419Z,3.70
2019-01-28T10:16:21.249Z,3.80
2019-01-28T10:21:07.808Z,4.10
2019-01-28T10:25:57.742Z,4.40
2019-01-28T10:30:43.679Z,4.90
2019-01-28T10:35:31.415Z,5.30
2019-01-28T10:40:23.470Z,5.70
2019-01-28T10:45:11.070Z,5.90
2019-01-28T10:49:56.873Z,5.50
2019-01-28T10:54:42.768Z,5.60
2019-01-28T10:59:28.968Z,5.60
2019-01-28T11:04:15.632Z,5.20
2019-01-28T11:09:01.368Z,4.60
2019-01-28T11:13:47.131Z,3.90
2019-01-28T11:18:33.687Z,3.80
2019-01-28T11:23:19.801Z,3.90
2019-01-28T11:28:07.371Z,4.00
2019-01-28T11:32:53.700Z,4.10
2019-01-28T11:37:40.341Z,4.20
2019-01-28T11:42:28.056Z,4.20
2019-01-28T11:47:14.114Z,4.20
2019-01-28T11:52:00.421Z,4.40
2019-01-28T11:56:46.811Z,4.10
2019-01-28T12:01:33.726Z,3.70
2019-01-28T12:06:19.841Z,3.60
2019-01-28T12:11:07.671Z,3.70
2019-01-28T12:15:56.396Z,4.00
2019-01-28T12:20:44.583Z,4.40
2019-01-28T12:25:31.505Z,4.80
2019-01-28T12:30:22.298Z,5.10
2019-01-28T12:35:09.436Z,5.10
2019-01-28T12:39:56.012Z,5.70
2019-01-28T12:44:41.896Z,6.10
2019-01-28T12:49:27.741Z,5.80
2019-01-28T12:54:13.581Z,5.30
2019-01-28T12:59:00.351Z,5.10
2019-01-28T13:03:46.708Z,5.20
2019-01-28T13:08:33.407Z,5.40
2019-01-28T13:13:21.582Z,5.40
2019-01-28T13:18:08.143Z,4.70
2019-01-28T13:22:54.568Z,4.40
2019-01-28T13:27:41.139Z,4.20
2019-01-28T13:32:27.584Z,4.20
2019-01-28T13:37:14.457Z,4.20
2019-01-28T13:42:00.740Z,4.20
2019-01-28T13:46:50.610Z,3.90
2019-01-28T13:51:54.425Z,3.90
2019-01-28T13:56:40.497Z,3.90
2019-01-28T14:01:26.452Z,4.00
2019-01-28T14:06:12.334Z,4.00
2019-01-28T14:10:59.370Z,3.80
2019-01-28T14:15:46.028Z,3.70
2019-01-28T14:20:33.679Z,3.70
2019-01-28T14:25:19.617Z,3.80
2019-01-28T14:30:07.292Z,3.80
2019-01-28T14:34:53.245Z,3.90
2019-01-28T14:39:40.600Z,3.60
2019-01-28T14:44:26.536Z,3.60
2019-01-28T14:49:12.920Z,3.60
2019-01-28T14:53:59.291Z,3.50
2019-01-28T14:58:45.329Z,3.20
2019-01-28T15:03:32.162Z,3.20
2019-01-28T15:08:18.847Z,3.20
2019-01-28T15:13:26.279Z,3.20
2019-01-28T15:18:14.883Z,3.20
2019-01-28T15:23:00.796Z,3.20
2019-01-28T15:27:46.940Z,3.20
2019-01-28T15:32:33.187Z,3.20
2019-01-28T15:37:19.159Z,3.20
2019-01-28T15:42:05.233Z,3.20
2019-01-28T15:46:52.855Z,3.30
2019-01-28T15:51:38.755Z,3.30
2019-01-28T15:56:25.157Z,3.30
2019-01-28T16:01:12.377Z,3.20
2019-01-28T16:05:59.050Z,3.20
2019-01-28T16:10:45.096Z,3.10
2019-01-28T16:15:43.615Z,3.10
2019-01-28T16:20:30.062Z,3.00
2019-01-28T16:25:16.593Z,2.90
2019-01-28T16:30:03.246Z,2.90
2019-01-28T16:34:51.674Z,3.00
2019-01-28T16:39:38.284Z,2.90
2019-01-28T16:44:24.093Z,3.00
2019-01-28T16:49:10.308Z,2.80
2019-01-28T16:53:56.201Z,2.90
2019-01-28T16:58:42.228Z,2.80
2019-01-28T17:03:28.744Z,2.70
2019-01-28T17:08:15.088Z,2.80
2019-01-28T17:13:01.475Z,2.90
2019-01-28T17:17:47.924Z,2.90
2019-01-28T17:22:35.714Z,2.90
2019-01-28T17:27:21.619Z,2.80
2019-01-28T17:32:07.531Z,2.80
2019-01-28T17:36:54.123Z,2.70
2019-01-28T17:41:40.115Z,2.60
2019-01-28T17:46:26.002Z,2.60
2019-01-28T17:51:12.404Z,2.60
2019-01-28T17:55:58.268Z,2.50
2019-01-28T18:01:09.231Z,2.60
2019-01-28T18:05:55.201Z,2.80
2019-01-28T18:10:41.609Z,2.80
2019-01-28T18:15:27.761Z,2.70
2019-01-28T18:20:15.374Z,2.70
2019-01-28T18:25:02.047Z,2.60
2019-01-28T18:29:51.000Z,2.50
2019-01-28T18:34:37.220Z,2.40
2019-01-28T18:39:23.720Z,2.40
2019-01-28T18:44:10.377Z,2.30
2019-01-28T18:48:56.300Z,2.20
2019-01-28T18:53:42.295Z,2.00
2019-01-28T18:58:28.348Z,1.90
2019-01-28T19:03:14.509Z,1.80
2019-01-28T19:08:03.126Z,1.80
2019-01-28T19:13:01.277Z,1.70
2019-01-28T19:18:09.696Z,1.80
2019-01-28T19:22:56.079Z,1.60
2019-01-28T19:27:42.554Z,1.60
2019-01-28T19:32:29.438Z,1.60
2019-01-28T19:37:16.366Z,1.60
2019-01-28T19:42:04.983Z,1.60
2019-01-28T19:46:51.039Z,1.60
2019-01-28T19:51:37.190Z,1.60
2019-01-28T19:56:23.315Z,1.60
2019-01-28T20:01:09.667Z,1.50
2019-01-28T20:05:55.863Z,1.50
2019-01-28T20:10:42.204Z,1.60
2019-01-28T20:15:32.418Z,1.60
2019-01-28T20:20:18.813Z,1.50
2019-01-28T20:25:06.274Z,1.40
2019-01-28T20:29:52.730Z,1.40
2019-01-28T20:34:43.309Z,1.40
2019-01-28T20:39:26.316Z,1.40
2019-01-28T20:44:12.731Z,1.40
2019-01-28T20:48:58.769Z,1.50
2019-01-28T20:53:44.689Z,1.50
2019-01-28T20:58:31.291Z,1.40
2019-01-28T21:03:17.623Z,1.30
2019-01-28T21:08:04.236Z,1.30
2019-01-28T21:12:50.517Z,1.30
2019-01-28T21:17:36.658Z,1.30
2019-01-28T21:22:22.876Z,1.20
2019-01-28T21:27:08.827Z,1.20
2019-01-28T21:31:54.844Z,1.30
2019-01-28T21:36:59.943Z,1.50
2019-01-28T21:41:45.912Z,1.50
2019-01-28T21:46:32.042Z,1.50
2019-01-28T21:51:18.099Z,1.50
2019-01-28T21:56:04.068Z,1.50
2019-01-28T22:00:50.183Z,1.50
2019-01-28T22:05:36.458Z,1.40
2019-01-28T22:10:23.270Z,1.30
2019-01-28T22:15:12.567Z,1.20
2019-01-28T22:19:58.518Z,1.30
2019-01-28T22:24:44.306Z,1.30
2019-01-28T22:29:30.360Z,1.30
2019-01-28T22:34:16.509Z,1.30
2019-01-28T22:39:02.900Z,1.40
2019-01-28T22:43:49.133Z,1.60
2019-01-28T22:48:35.022Z,1.60
2019-01-28T22:53:20.788Z,1.60
2019-01-28T22:58:06.722Z,1.50
2019-01-28T23:02:52.545Z,1.50
2019-01-28T23:07:38.325Z,1.40
2019-01-28T23:12:24.210Z,1.40
2019-01-28T23:17:10.285Z,1.40
2019-01-28T23:21:56.065Z,1.30
2019-01-28T23:26:41.908Z,1.30
2019-01-28T23:31:27.760Z,1.20
2019-01-28T23:36:13.833Z,1.30
2019-01-28T23:40:59.605Z,1.30
2019-01-28T23:45:45.531Z,1.20
2019-01-28T23:50:31.319Z,1.20
2019-01-28T23:55:17.276Z,1.20
